createdAt,value
2023-04-29T00:02:11.822Z,100137.00
2023-04-29T00:04:38.593Z,100141.34
2023-04-29T00:07:05.258Z,100143.91
2023-04-29T00:09:31.654Z,100137.47
2023-04-29T00:11:58.071Z,100141.84
2023-04-29T00:14:24.924Z,100139.88
2023-04-29T00:16:51.692Z,100136.47
2023-04-29T00:19:18.606Z,100127.88
2023-04-29T00:21:45.059Z,100137.28
2023-04-29T00:24:11.585Z,100137.13
2023-04-29T00:26:38.424Z,100133.88
2023-04-29T00:29:04.861Z,100135.69
2023-04-29T00:31:32.710Z,100136.78
2023-04-29T00:33:59.538Z,100134.53
2023-04-29T00:36:26.330Z,100141.19
2023-04-29T00:38:52.731Z,100137.13
2023-04-29T00:41:19.639Z,100134.19
2023-04-29T00:43:46.091Z,100145.06
2023-04-29T00:46:13.692Z,100140.03
2023-04-29T00:48:41.369Z,100143.31
2023-04-29T00:51:07.870Z,100142.16
2023-04-29T00:53:34.937Z,100143.44
2023-04-29T00:56:01.786Z,100146.03
2023-04-29T00:58:33.348Z,100151.69
2023-04-29T01:01:00.027Z,100148.00
2023-04-29T01:03:26.882Z,100143.91
2023-04-29T01:05:54.755Z,100145.25
2023-04-29T01:08:28.893Z,100155.13
2023-04-29T01:10:57.902Z,100144.91
2023-04-29T01:13:24.298Z,100145.38
2023-04-29T01:16:03.630Z,100145.56
2023-04-29T01:18:32.839Z,100154.97
2023-04-29T01:20:59.823Z,100150.56
2023-04-29T01:23:26.981Z,100152.22
2023-04-29T01:25:54.259Z,100156.06
2023-04-29T01:28:44.448Z,100159.63
2023-04-29T01:31:14.782Z,100154.00
2023-04-29T01:33:48.776Z,100159.31
2023-04-29T01:36:16.587Z,100151.25
2023-04-29T01:38:43.241Z,100148.50
2023-04-29T01:41:17.194Z,100157.88
2023-04-29T01:43:47.616Z,100152.66
2023-04-29T01:46:20.897Z,100153.97
2023-04-29T01:48:48.736Z,100154.13
2023-04-29T01:51:15.331Z,100158.03
2023-04-29T01:53:41.804Z,100158.03
2023-04-29T01:56:08.337Z,100151.03
2023-04-29T01:58:44.812Z,100163.53
2023-04-29T02:01:29.625Z,100161.09
2023-04-29T02:03:56.243Z,100162.25
2023-04-29T02:06:22.984Z,100155.13
2023-04-29T02:08:54.929Z,100163.06
2023-04-29T02:11:21.522Z,100159.00
2023-04-29T02:13:48.109Z,100165.31
2023-04-29T02:16:15.555Z,100164.19
2023-04-29T02:18:51.952Z,100164.19
2023-04-29T02:21:18.385Z,100170.31
2023-04-29T02:23:44.753Z,100171.63
2023-04-29T02:26:11.935Z,100165.78
2023-04-29T02:28:38.724Z,100167.75
2023-04-29T02:31:05.357Z,100171.94
2023-04-29T02:33:32.853Z,100177.94
2023-04-29T02:35:59.752Z,100173.25
2023-04-29T02:38:26.251Z,100174.22
2023-04-29T02:40:52.747Z,100184.56
2023-04-29T02:43:21.197Z,100182.50
2023-04-29T02:45:47.697Z,100189.59
2023-04-29T02:48:14.753Z,100192.50
2023-04-29T02:50:41.522Z,100187.81
2023-04-29T02:53:08.011Z,100188.94
2023-04-29T02:55:34.560Z,100188.31
2023-04-29T02:58:06.999Z,100190.09
2023-04-29T03:00:33.512Z,100196.91
2023-04-29T03:03:00.100Z,100192.53
2023-04-29T03:05:26.828Z,100185.56
2023-04-29T03:07:53.981Z,100189.78
2023-04-29T03:10:20.482Z,100194.63
2023-04-29T03:12:46.870Z,100197.56
2023-04-29T03:15:13.339Z,100196.72
2023-04-29T03:17:40.192Z,100202.56
2023-04-29T03:20:07.780Z,100197.72
2023-04-29T03:22:34.924Z,100202.72
2023-04-29T03:25:01.637Z,100202.56
2023-04-29T03:27:28.308Z,100198.84
2023-04-29T03:29:55.163Z,100186.22
2023-04-29T03:32:21.765Z,100193.34
2023-04-29T03:34:49.328Z,100192.38
2023-04-29T03:37:29.753Z,100189.78
2023-04-29T03:40:08.881Z,100187.19
2023-04-29T03:42:35.721Z,100188.50
2023-04-29T03:45:02.733Z,100188.50
2023-04-29T03:47:29.741Z,100187.84
2023-04-29T03:49:56.153Z,100195.59
2023-04-29T03:52:22.552Z,100199.97
2023-04-29T03:54:51.552Z,100209.34
2023-04-29T03:57:17.970Z,100204.81
2023-04-29T03:59:45.450Z,100216.97
2023-04-29T04:02:11.960Z,100208.53
2023-04-29T04:04:38.680Z,100215.03
2023-04-29T04:07:06.015Z,100222.13
2023-04-29T04:09:44.813Z,100218.28
2023-04-29T04:12:11.222Z,100220.38
2023-04-29T04:14:38.315Z,100226.50
2023-04-29T04:17:04.751Z,100224.91
2023-04-29T04:19:31.793Z,100230.41
2023-04-29T04:21:59.272Z,100239.16
2023-04-29T04:24:25.751Z,100233.78
2023-04-29T04:26:52.112Z,100241.59
2023-04-29T04:29:25.984Z,100238.97
2023-04-29T04:31:58.410Z,100233.78
2023-04-29T04:34:26.245Z,100243.19
2023-04-29T04:36:54.640Z,100241.88
2023-04-29T04:39:22.258Z,100239.63
2023-04-29T04:41:49.384Z,100243.50
2023-04-29T04:44:16.493Z,100249.19
2023-04-29T04:47:04.123Z,100254.69
2023-04-29T04:49:46.155Z,100260.84
2023-04-29T04:52:12.683Z,100262.63
2023-04-29T04:54:39.202Z,100261.94
2023-04-29T04:57:13.312Z,100282.03
2023-04-29T04:59:39.740Z,100276.53
2023-04-29T05:02:06.204Z,100280.41
2023-04-29T05:04:32.658Z,100289.78
2023-04-29T05:06:59.133Z,100289.47
2023-04-29T05:09:30.938Z,100305.34
2023-04-29T05:11:59.346Z,100306.28
2023-04-29T05:14:27.395Z,100306.09
2023-04-29T05:16:53.914Z,100313.06
2023-04-29T05:19:20.474Z,100315.34
2023-04-29T05:21:46.899Z,100316.84
2023-04-29T05:24:13.301Z,100309.88
2023-04-29T05:26:39.840Z,100320.56
2023-04-29T05:29:06.829Z,100315.06
2023-04-29T05:31:42.639Z,100322.69
2023-04-29T05:34:09.213Z,100318.97
2023-04-29T05:36:36.611Z,100325.91
2023-04-29T05:39:03.528Z,100326.88
2023-04-29T05:41:29.947Z,100332.53
2023-04-29T05:44:11.367Z,100337.41
2023-04-29T05:46:37.853Z,100333.03
2023-04-29T05:49:04.361Z,100328.19
2023-04-29T05:51:31.802Z,100339.69
2023-04-29T05:54:01.694Z,100341.25
2023-04-29T05:56:29.686Z,100345.97
2023-04-29T05:58:56.212Z,100340.63
2023-04-29T06:01:23.032Z,100344.00
2023-04-29T06:03:49.680Z,100354.56
2023-04-29T06:06:35.009Z,100353.44
2023-04-29T06:09:27.953Z,100361.63
2023-04-29T06:11:58.783Z,100364.88
2023-04-29T06:14:25.598Z,100365.03
2023-04-29T06:16:53.653Z,100371.53
2023-04-29T06:19:20.049Z,100370.25
2023-04-29T06:21:47.874Z,100377.66
2023-04-29T06:24:14.538Z,100375.38
2023-04-29T06:26:40.978Z,100376.19
2023-04-29T06:29:07.570Z,100379.06
2023-04-29T06:31:35.969Z,100379.72
2023-04-29T06:34:04.049Z,100378.09
2023-04-29T06:36:32.207Z,100391.03
2023-04-29T06:39:12.870Z,100386.66
2023-04-29T06:41:55.018Z,100395.72
2023-04-29T06:44:39.728Z,100395.56
2023-04-29T06:47:24.608Z,100397.84
2023-04-29T06:50:07.076Z,100401.91
2023-04-29T06:52:33.577Z,100401.91
2023-04-29T06:55:00.156Z,100412.56
2023-04-29T06:57:27.133Z,100403.91
2023-04-29T06:59:53.660Z,100408.41
2023-04-29T07:02:20.455Z,100415.03
2023-04-29T07:04:47.112Z,100422.16
2023-04-29T07:07:15.690Z,100421.19
2023-04-29T07:09:42.193Z,100425.06
2023-04-29T07:12:08.634Z,100426.03
2023-04-29T07:14:37.338Z,100428.28
2023-04-29T07:17:03.812Z,100433.16
2023-04-29T07:19:31.294Z,100432.50
2023-04-29T07:21:58.195Z,100446.91
2023-04-29T07:24:25.334Z,100448.06
2023-04-29T07:26:51.745Z,100450.97
2023-04-29T07:29:18.184Z,100454.41
2023-04-29T07:31:44.615Z,100454.97
2023-04-29T07:34:11.231Z,100458.66
2023-04-29T07:36:38.703Z,100456.53
2023-04-29T07:39:05.987Z,100466.91
2023-04-29T07:41:32.458Z,100467.03
2023-04-29T07:43:58.899Z,100474.13
2023-04-29T07:46:25.487Z,100480.31
2023-04-29T07:48:52.978Z,100477.00
2023-04-29T07:51:19.467Z,100478.25
2023-04-29T07:53:45.897Z,100476.75
2023-04-29T07:56:12.366Z,100474.75
2023-04-29T07:58:39.488Z,100477.78
2023-04-29T08:01:07.059Z,100481.69
2023-04-29T08:03:33.876Z,100488.59
2023-04-29T08:06:01.565Z,100485.00
2023-04-29T08:08:27.996Z,100486.88
2023-04-29T08:10:54.475Z,100483.00
2023-04-29T08:13:20.840Z,100490.75
2023-04-29T08:15:47.348Z,100492.38
2023-04-29T08:18:15.015Z,100491.88
2023-04-29T08:20:41.708Z,100492.19
2023-04-29T08:23:08.117Z,100493.13
2023-04-29T08:25:34.520Z,100490.88
2023-04-29T08:28:00.953Z,100495.97
2023-04-29T08:30:27.370Z,100495.19
2023-04-29T08:32:53.890Z,100498.50
2023-04-29T08:35:20.510Z,100498.44
2023-04-29T08:37:47.664Z,100500.66
2023-04-29T08:40:14.082Z,100499.25
2023-04-29T08:42:41.187Z,100501.38
2023-04-29T08:45:07.758Z,100503.50
2023-04-29T08:47:34.421Z,100511.59
2023-04-29T08:50:04.532Z,100508.38
2023-04-29T08:52:34.215Z,100514.69
2023-04-29T08:55:02.583Z,100515.47
2023-04-29T08:57:29.794Z,100523.50
2023-04-29T08:59:56.278Z,100523.50
2023-04-29T09:02:22.939Z,100531.47
2023-04-29T09:05:00.729Z,100539.47
2023-04-29T09:07:27.220Z,100529.59
2023-04-29T09:09:53.697Z,100536.72
2023-04-29T09:12:20.195Z,100530.84
2023-04-29T09:14:46.748Z,100543.97
2023-04-29T09:17:13.205Z,100544.34
2023-04-29T09:19:39.607Z,100542.41
2023-04-29T09:22:08.970Z,100545.84
2023-04-29T09:24:35.470Z,100545.13
2023-04-29T09:27:03.392Z,100548.84
2023-04-29T09:29:30.800Z,100549.81
2023-04-29T09:31:58.578Z,100538.16
2023-04-29T09:34:32.202Z,100539.00
2023-04-29T09:36:59.188Z,100543.84
2023-04-29T09:39:26.223Z,100542.72
2023-04-29T09:41:52.719Z,100544.84
2023-04-29T09:44:26.088Z,100551.97
2023-04-29T09:47:02.680Z,100549.53
2023-04-29T09:49:33.508Z,100555.84
2023-04-29T09:52:00.480Z,100554.22
2023-04-29T09:54:28.565Z,100553.66
2023-04-29T09:56:55.718Z,100566.03
2023-04-29T09:59:22.734Z,100565.41
2023-04-29T10:01:50.189Z,100571.53
2023-04-29T10:04:17.462Z,100570.06
2023-04-29T10:06:44.638Z,100559.44
2023-04-29T10:09:13.571Z,100562.69
2023-04-29T10:11:40.069Z,100560.84
2023-04-29T10:14:06.532Z,100566.97
2023-04-29T10:16:35.099Z,100563.50
2023-04-29T10:19:06.925Z,100569.63
2023-04-29T10:21:33.380Z,100569.31
2023-04-29T10:24:00.035Z,100566.38
2023-04-29T10:26:27.354Z,100569.25
2023-04-29T10:28:54.498Z,100565.97
2023-04-29T10:31:21.662Z,100562.75
2023-04-29T10:33:48.149Z,100557.72
2023-04-29T10:36:14.960Z,100557.94
2023-04-29T10:38:49.511Z,100563.69
2023-04-29T10:41:24.725Z,100554.75
2023-04-29T10:43:51.957Z,100555.75
2023-04-29T10:46:18.363Z,100556.75
2023-04-29T10:48:45.155Z,100554.03
2023-04-29T10:51:11.788Z,100562.00
2023-04-29T10:53:57.924Z,100555.59
2023-04-29T10:56:24.623Z,100554.28
2023-04-29T10:58:51.446Z,100555.16
2023-04-29T11:01:17.965Z,100555.06
2023-04-29T11:03:55.960Z,100560.41
2023-04-29T11:06:23.376Z,100553.22
2023-04-29T11:08:59.381Z,100557.22
2023-04-29T11:11:27.782Z,100555.31
2023-04-29T11:13:54.768Z,100553.50
2023-04-29T11:16:22.449Z,100545.56
2023-04-29T11:19:05.013Z,100546.50
2023-04-29T11:21:32.675Z,100543.13
2023-04-29T11:23:59.109Z,100540.69
2023-04-29T11:26:25.756Z,100542.66
2023-04-29T11:28:52.276Z,100546.38
2023-04-29T11:31:18.713Z,100541.34
2023-04-29T11:33:45.181Z,100538.59
2023-04-29T11:36:11.569Z,100541.69
2023-04-29T11:38:39.512Z,100542.50
2023-04-29T11:41:05.921Z,100540.25
2023-04-29T11:43:32.335Z,100547.09
2023-04-29T11:45:58.804Z,100552.31
2023-04-29T11:48:25.700Z,100552.69
2023-04-29T11:50:52.581Z,100555.31
2023-04-29T11:53:22.384Z,100551.56
2023-04-29T11:55:48.837Z,100558.81
2023-04-29T11:58:16.298Z,100561.00
2023-04-29T12:00:42.694Z,100567.03
2023-04-29T12:03:16.018Z,100559.28
2023-04-29T12:05:49.540Z,100560.53
2023-04-29T12:08:19.378Z,100555.19
2023-04-29T12:10:46.867Z,100557.38
2023-04-29T12:13:13.270Z,100561.44
2023-04-29T12:15:40.358Z,100563.66
2023-04-29T12:18:07.105Z,100566.66
2023-04-29T12:20:33.548Z,100567.94
2023-04-29T12:23:15.694Z,100570.75
2023-04-29T12:25:42.573Z,100566.41
2023-04-29T12:28:12.889Z,100563.50
2023-04-29T12:30:39.414Z,100575.03
2023-04-29T12:33:08.129Z,100579.13
2023-04-29T12:35:34.683Z,100572.81
2023-04-29T12:38:01.335Z,100573.09
2023-04-29T12:40:30.074Z,100577.72
2023-04-29T12:42:56.749Z,100580.47
2023-04-29T12:45:32.613Z,100578.34
2023-04-29T12:47:59.285Z,100586.94
2023-04-29T12:50:29.828Z,100582.34
2023-04-29T12:52:56.453Z,100587.22
2023-04-29T12:55:22.985Z,100587.22
2023-04-29T12:57:49.654Z,100599.88
2023-04-29T13:00:16.838Z,100590.31
2023-04-29T13:02:43.432Z,100593.56
2023-04-29T13:05:09.983Z,100593.25
2023-04-29T13:07:37.151Z,100598.41
2023-04-29T13:10:06.391Z,100599.88
2023-04-29T13:12:33.066Z,100598.84
2023-04-29T13:14:59.755Z,100596.31
2023-04-29T13:17:26.463Z,100599.38
2023-04-29T13:19:52.988Z,100598.84
2023-04-29T13:22:19.456Z,100599.88
2023-04-29T13:24:46.560Z,100596.63
2023-04-29T13:27:13.132Z,100597.13
2023-04-29T13:29:39.641Z,100599.88
2023-04-29T13:32:06.180Z,100599.88
2023-04-29T13:34:32.724Z,100605.38
2023-04-29T13:36:59.240Z,100604.56
2023-04-29T13:39:25.839Z,100598.84
2023-04-29T13:41:56.172Z,100610.69
2023-04-29T13:44:32.907Z,100615.38
2023-04-29T13:47:06.334Z,100611.50
2023-04-29T13:50:20.115Z,100618.00
2023-04-29T13:55:25.870Z,100621.06
2023-04-29T14:00:25.499Z,100628.19
2023-04-29T14:05:25.393Z,100619.13
2023-04-29T14:07:52.197Z,100622.69
2023-04-29T14:10:18.682Z,100620.25
2023-04-29T14:12:45.143Z,100620.75
2023-04-29T14:15:12.129Z,100618.00
2023-04-29T14:17:38.634Z,100624.94
2023-04-29T14:20:05.390Z,100622.69
2023-04-29T14:22:31.836Z,100625.13
2023-04-29T14:24:58.262Z,100622.38
2023-04-29T14:27:24.721Z,100630.13
2023-04-29T14:29:51.213Z,100638.88
2023-04-29T14:32:17.576Z,100637.50
2023-04-29T14:34:44.056Z,100628.88
2023-04-29T14:37:10.623Z,100637.88
2023-04-29T14:39:37.121Z,100638.34
2023-04-29T14:42:04.398Z,100643.38
2023-04-29T14:44:31.186Z,100641.94
2023-04-29T14:46:57.712Z,100655.38
2023-04-29T14:49:24.179Z,100649.25
2023-04-29T14:51:50.621Z,100651.84
2023-04-29T14:54:17.259Z,100649.53
2023-04-29T14:56:43.820Z,100649.91
2023-04-29T14:59:10.452Z,100650.34
2023-04-29T15:01:37.010Z,100652.94
2023-04-29T15:04:04.424Z,100650.19
2023-04-29T15:06:34.382Z,100649.25
2023-04-29T15:09:01.086Z,100656.38
2023-04-29T15:11:27.966Z,100647.03
2023-04-29T15:13:54.407Z,100651.34
2023-04-29T15:16:21.006Z,100647.47
2023-04-29T15:18:47.471Z,100642.41
2023-04-29T15:21:13.908Z,100643.84
2023-04-29T15:23:40.474Z,100642.72
2023-04-29T15:26:07.760Z,100644.19
2023-04-29T15:28:34.237Z,100647.88
2023-04-29T15:31:03.696Z,100643.50
2023-04-29T15:33:30.160Z,100655.84
2023-04-29T15:35:57.713Z,100655.59
2023-04-29T15:38:24.119Z,100649.91
2023-04-29T15:40:50.611Z,100647.03
2023-04-29T15:43:17.079Z,100649.78
2023-04-29T15:45:44.396Z,100654.31
2023-04-29T15:48:10.967Z,100660.81
2023-04-29T15:50:37.526Z,100659.38
2023-04-29T15:53:03.980Z,100662.06
2023-04-29T15:55:30.420Z,100664.63
2023-04-29T15:57:56.878Z,100669.16
2023-04-29T16:00:23.251Z,100670.88
2023-04-29T16:02:49.706Z,100676.50
2023-04-29T16:05:16.157Z,100673.34
2023-04-29T16:07:42.608Z,100671.28
2023-04-29T16:10:09.894Z,100672.91
2023-04-29T16:12:36.435Z,100668.22
2023-04-29T16:15:03.307Z,100668.47
2023-04-29T16:17:31.372Z,100676.09
2023-04-29T16:19:58.302Z,100669.69
2023-04-29T16:22:24.774Z,100671.97
2023-04-29T16:24:51.230Z,100668.41
2023-04-29T16:27:17.720Z,100668.78
2023-04-29T16:29:44.223Z,100671.72
2023-04-29T16:32:11.202Z,100667.00
2023-04-29T16:34:37.852Z,100670.28
2023-04-29T16:37:04.279Z,100663.75
2023-04-29T16:39:31.214Z,100662.13
2023-04-29T16:41:59.456Z,100658.91
2023-04-29T16:44:25.976Z,100661.44
2023-04-29T16:46:52.794Z,100660.34
2023-04-29T16:49:19.671Z,100657.88
2023-04-29T16:51:46.132Z,100662.56
2023-04-29T16:54:12.639Z,100670.53
2023-04-29T16:56:39.073Z,100672.66
2023-04-29T16:59:05.538Z,100661.94
2023-04-29T17:01:32.282Z,100669.25
2023-04-29T17:03:59.364Z,100667.19
2023-04-29T17:06:26.207Z,100668.19
2023-04-29T17:08:52.884Z,100676.72
2023-04-29T17:11:19.318Z,100673.00
2023-04-29T17:13:46.336Z,100677.13
2023-04-29T17:16:13.818Z,100679.38
2023-04-29T17:18:40.360Z,100667.38
2023-04-29T17:21:06.803Z,100673.66
2023-04-29T17:23:33.347Z,100680.25
2023-04-29T17:25:59.826Z,100684.78
2023-04-29T17:28:26.550Z,100678.91
2023-04-29T17:30:59.823Z,100690.28
2023-04-29T17:33:34.276Z,100687.16
2023-04-29T17:36:04.169Z,100683.28
2023-04-29T17:38:30.643Z,100685.41
2023-04-29T17:40:57.062Z,100674.03
2023-04-29T17:43:23.524Z,100680.00
2023-04-29T17:45:49.927Z,100681.75
2023-04-29T17:48:18.497Z,100684.66
2023-04-29T17:50:45.391Z,100688.03
2023-04-29T17:53:12.053Z,100689.66
2023-04-29T17:55:38.896Z,100687.78
2023-04-29T17:58:05.630Z,100685.84
2023-04-29T18:00:32.056Z,100690.38
2023-04-29T18:02:58.640Z,100692.03
2023-04-29T18:05:25.161Z,100707.06
2023-04-29T18:07:51.573Z,100701.84
2023-04-29T18:10:18.057Z,100708.81
2023-04-29T18:12:44.464Z,100706.59
2023-04-29T18:15:13.957Z,100714.06
2023-04-29T18:17:40.598Z,100709.69
2023-04-29T18:20:07.935Z,100706.22
2023-04-29T18:22:34.411Z,100700.97
2023-04-29T18:25:00.865Z,100708.28
2023-04-29T18:27:27.455Z,100707.28
2023-04-29T18:29:54.197Z,100701.91
2023-04-29T18:32:20.981Z,100709.75
2023-04-29T18:34:47.451Z,100709.56
2023-04-29T18:37:14.134Z,100715.88
2023-04-29T18:39:40.553Z,100713.91
2023-04-29T18:42:07.034Z,100714.63
2023-04-29T18:44:33.470Z,100715.09
2023-04-29T18:46:59.885Z,100718.41
2023-04-29T18:49:26.319Z,100721.31
2023-04-29T18:51:52.829Z,100722.81
2023-04-29T18:54:19.364Z,100727.06
2023-04-29T18:56:46.682Z,100723.31
2023-04-29T18:59:15.804Z,100728.69
2023-04-29T19:01:43.366Z,100732.44
2023-04-29T19:04:10.333Z,100730.38
2023-04-29T19:06:37.007Z,100729.56
2023-04-29T19:09:03.747Z,100741.06
2023-04-29T19:11:30.307Z,100738.13
2023-04-29T19:13:56.798Z,100745.03
2023-04-29T19:16:23.476Z,100744.34
2023-04-29T19:18:50.037Z,100746.88
2023-04-29T19:21:16.825Z,100748.13
2023-04-29T19:23:43.345Z,100750.94
2023-04-29T19:26:09.862Z,100752.19
2023-04-29T19:28:36.255Z,100761.13
2023-04-29T19:31:03.313Z,100753.88
2023-04-29T19:33:30.676Z,100761.88
2023-04-29T19:35:57.225Z,100763.34
2023-04-29T19:38:24.352Z,100762.88
2023-04-29T19:40:50.788Z,100763.84
2023-04-29T19:43:17.973Z,100768.38
2023-04-29T19:45:44.457Z,100764.47
2023-04-29T19:48:11.188Z,100747.34
2023-04-29T19:50:38.149Z,100754.63
2023-04-29T19:53:04.677Z,100766.50
2023-04-29T19:55:31.268Z,100770.97
2023-04-29T19:57:58.549Z,100764.84
2023-04-29T20:00:25.160Z,100770.13
2023-04-29T20:02:52.287Z,100772.44
2023-04-29T20:05:19.767Z,100772.44
2023-04-29T20:07:46.279Z,100775.06
2023-04-29T20:10:12.801Z,100766.50
2023-04-29T20:12:40.306Z,100771.25
2023-04-29T20:15:08.144Z,100773.75
2023-04-29T20:17:34.756Z,100774.25
2023-04-29T20:20:01.847Z,100776.31
2023-04-29T20:22:29.256Z,100780.56
2023-04-29T20:24:55.706Z,100784.63
2023-04-29T20:27:22.319Z,100785.72
2023-04-29T20:29:48.809Z,100788.13
2023-04-29T20:32:15.448Z,100793.66
2023-04-29T20:34:42.172Z,100781.38
2023-04-29T20:37:09.665Z,100787.56
2023-04-29T20:39:36.596Z,100797.09
2023-04-29T20:42:03.217Z,100802.97
2023-04-29T20:44:29.986Z,100801.53
2023-04-29T20:46:56.497Z,100807.84
2023-04-29T20:49:23.146Z,100798.44
2023-04-29T20:51:49.671Z,100803.66
2023-04-29T20:54:16.107Z,100800.91
2023-04-29T20:56:42.555Z,100804.13
2023-04-29T20:59:09.010Z,100791.50
2023-04-29T21:01:37.541Z,100797.00
2023-04-29T21:04:04.608Z,100801.53
2023-04-29T21:06:32.087Z,100798.25
2023-04-29T21:08:58.683Z,100810.94
2023-04-29T21:11:25.239Z,100814.50
2023-04-29T21:13:51.966Z,100812.56
2023-04-29T21:16:18.891Z,100818.06
2023-04-29T21:18:45.496Z,100822.94
2023-04-29T21:21:12.088Z,100821.31
2023-04-29T21:23:38.830Z,100822.94
2023-04-29T21:26:05.224Z,100822.94
2023-04-29T21:28:31.716Z,100819.06
2023-04-29T21:30:58.294Z,100816.63
2023-04-29T21:33:24.838Z,100809.47
2023-04-29T21:35:51.566Z,100814.16
2023-04-29T21:38:18.391Z,100818.56
2023-04-29T21:40:45.124Z,100821.31
2023-04-29T21:43:11.611Z,100810.31
2023-04-29T21:45:38.024Z,100818.06
2023-04-29T21:48:12.880Z,100813.34
2023-04-29T21:50:39.273Z,100808.66
2023-04-29T21:53:05.698Z,100817.25
2023-04-29T21:55:32.202Z,100821.78
2023-04-29T21:57:58.750Z,100814.06
2023-04-29T22:00:33.067Z,100820.56
2023-04-29T22:03:00.632Z,100815.56
2023-04-29T22:05:27.294Z,100824.34
2023-04-29T22:07:53.841Z,100823.19
2023-04-29T22:10:20.389Z,100828.72
2023-04-29T22:12:46.872Z,100824.81
2023-04-29T22:15:20.970Z,100838.91
2023-04-29T22:17:54.874Z,100833.41
2023-04-29T22:20:21.455Z,100827.22
2023-04-29T22:22:47.939Z,100834.16
2023-04-29T22:25:14.474Z,100832.34
2023-04-29T22:27:41.113Z,100834.09
2023-04-29T22:30:08.316Z,100839.63
2023-04-29T22:32:34.813Z,100828.59
2023-04-29T22:35:01.512Z,100833.78
2023-04-29T22:37:27.971Z,100830.84
2023-04-29T22:39:54.645Z,100826.47
2023-04-29T22:42:21.360Z,100832.97
2023-04-29T22:44:47.829Z,100838.59
2023-04-29T22:47:14.353Z,100836.25
2023-04-29T22:49:41.045Z,100839.25
2023-04-29T22:52:07.590Z,100839.47
2023-04-29T22:54:34.037Z,100839.56
2023-04-29T22:57:00.673Z,100831.91
2023-04-29T22:59:27.144Z,100830.31
2023-04-29T23:01:53.731Z,100829.31
2023-04-29T23:04:20.426Z,100841.13
2023-04-29T23:06:46.950Z,100838.16
2023-04-29T23:09:13.493Z,100838.47
2023-04-29T23:11:40.002Z,100836.41
2023-04-29T23:14:07.611Z,100833.97
2023-04-29T23:16:34.095Z,100840.31
2023-04-29T23:19:00.528Z,100841.84
2023-04-29T23:21:27.124Z,100845.72
2023-04-29T23:23:54.066Z,100853.88
2023-04-29T23:26:20.828Z,100846.03
2023-04-29T23:28:47.275Z,100848.78
2023-04-29T23:31:13.740Z,100850.91
2023-04-29T23:33:40.277Z,100853.16
2023-04-29T23:36:06.734Z,100854.78
2023-04-29T23:38:33.123Z,100856.31
2023-04-29T23:40:59.526Z,100844.59
2023-04-29T23:43:25.929Z,100848.47
2023-04-29T23:45:52.915Z,100847.47
2023-04-29T23:48:19.410Z,100848.47
2023-04-29T23:50:47.115Z,100860.91
2023-04-29T23:53:13.529Z,100854.78
2023-04-29T23:55:40.039Z,100855.41
2023-04-29T23:58:07.576Z,100855.81
